sensor_id;sensor_type;location;lat;lon;timestamp;P1;durP1;ratioP1;P2;durP2;ratioP2
41309;SDS011;27057;51.438;-0.010;2023-01-19T00:00:56;18.73;;;5.22;;
41309;SDS011;27057;51.438;-0.010;2023-01-19T00:03:24;18.40;;;5.53;;
41309;SDS011;27057;51.438;-0.010;2023-01-19T00:05:51;26.17;;;6.90;;
41309;SDS011;27057;51.438;-0.010;2023-01-19T00:08:19;16.05;;;5.40;;
41309;SDS011;27057;51.438;-0.010;2023-01-19T00:10:47;10.82;;;5.22;;
41309;SDS011;27057;51.438;-0.010;2023-01-19T00:13:16;10.25;;;4.32;;
41309;SDS011;27057;51.438;-0.010;2023-01-19T00:15:44;14.18;;;4.88;;
41309;SDS011;27057;51.438;-0.010;2023-01-19T00:18:11;16.40;;;5.00;;
41309;SDS011;27057;51.438;-0.010;2023-01-19T00:20:39;13.85;;;4.15;;
41309;SDS011;27057;51.438;-0.010;2023-01-19T00:23:07;16.50;;;3.70;;
41309;SDS011;27057;51.438;-0.010;2023-01-19T00:25:35;15.85;;;3.75;;
41309;SDS011;27057;51.438;-0.010;2023-01-19T00:28:09;16.40;;;4.03;;
41309;SDS011;27057;51.438;-0.010;2023-01-19T00:30:37;9.93;;;4.28;;
41309;SDS011;27057;51.438;-0.010;2023-01-19T00:33:05;17.23;;;3.30;;
41309;SDS011;27057;51.438;-0.010;2023-01-19T00:35:33;12.48;;;4.25;;
41309;SDS011;27057;51.438;-0.010;2023-01-19T00:38:01;8.35;;;3.70;;
41309;SDS011;27057;51.438;-0.010;2023-01-19T00:40:29;11.05;;;3.72;;
41309;SDS011;27057;51.438;-0.010;2023-01-19T00:42:56;11.68;;;3.90;;
41309;SDS011;27057;51.438;-0.010;2023-01-19T00:45:24;5.63;;;3.05;;
41309;SDS011;27057;51.438;-0.010;2023-01-19T00:47:52;16.60;;;4.45;;
41309;SDS011;27057;51.438;-0.010;2023-01-19T00:50:23;7.13;;;3.45;;
41309;SDS011;27057;51.438;-0.010;2023-01-19T00:52:51;11.30;;;4.00;;
41309;SDS011;27057;51.438;-0.010;2023-01-19T00:55:19;13.23;;;4.47;;
41309;SDS011;27057;51.438;-0.010;2023-01-19T00:57:47;14.68;;;4.75;;
41309;SDS011;27057;51.438;-0.010;2023-01-19T01:00:15;21.20;;;4.25;;
41309;SDS011;27057;51.438;-0.010;2023-01-19T01:02:45;9.68;;;4.00;;
41309;SDS011;27057;51.438;-0.010;2023-01-19T01:05:14;11.60;;;4.45;;
41309;SDS011;27057;51.438;-0.010;2023-01-19T01:07:42;28.33;;;4.60;;
41309;SDS011;27057;51.438;-0.010;2023-01-19T01:10:18;13.48;;;4.80;;
41309;SDS011;27057;51.438;-0.010;2023-01-19T01:12:47;9.70;;;4.40;;
41309;SDS011;27057;51.438;-0.010;2023-01-19T01:15:23;11.35;;;4.13;;
41309;SDS011;27057;51.438;-0.010;2023-01-19T01:17:52;10.23;;;4.25;;
41309;SDS011;27057;51.438;-0.010;2023-01-19T01:20:24;17.58;;;5.00;;
41309;SDS011;27057;51.438;-0.010;2023-01-19T01:22:54;13.65;;;4.57;;
41309;SDS011;27057;51.438;-0.010;2023-01-19T01:25:23;12.38;;;4.22;;
41309;SDS011;27057;51.438;-0.010;2023-01-19T01:27:52;15.98;;;4.03;;
41309;SDS011;27057;51.438;-0.010;2023-01-19T01:30:20;14.55;;;4.10;;
41309;SDS011;27057;51.438;-0.010;2023-01-19T01:32:48;11.27;;;4.22;;
41309;SDS011;27057;51.438;-0.010;2023-01-19T01:35:16;15.00;;;4.85;;
41309;SDS011;27057;51.438;-0.010;2023-01-19T01:37:43;15.90;;;4.38;;
41309;SDS011;27057;51.438;-0.010;2023-01-19T01:40:12;25.65;;;4.57;;
41309;SDS011;27057;51.438;-0.010;2023-01-19T01:42:41;11.07;;;4.30;;
41309;SDS011;27057;51.438;-0.010;2023-01-19T01:45:27;13.85;;;3.47;;
41309;SDS011;27057;51.438;-0.010;2023-01-19T01:48:07;14.45;;;3.78;;
41309;SDS011;27057;51.438;-0.010;2023-01-19T01:51:04;8.25;;;4.28;;
41309;SDS011;27057;51.438;-0.010;2023-01-19T01:56:40;8.73;;;4.13;;
41309;SDS011;27057;51.438;-0.010;2023-01-19T01:59:18;17.52;;;5.20;;
41309;SDS011;27057;51.438;-0.010;2023-01-19T02:02:01;16.33;;;6.07;;
41309;SDS011;27057;51.438;-0.010;2023-01-19T02:05:01;15.88;;;4.47;;
41309;SDS011;27057;51.438;-0.010;2023-01-19T02:07:42;16.38;;;4.93;;
41309;SDS011;27057;51.438;-0.010;2023-01-19T02:10:38;13.18;;;4.38;;
41309;SDS011;27057;51.438;-0.010;2023-01-19T02:13:27;18.35;;;4.60;;
41309;SDS011;27057;51.438;-0.010;2023-01-19T02:15:57;13.27;;;5.25;;
41309;SDS011;27057;51.438;-0.010;2023-01-19T02:18:27;14.73;;;4.65;;
41309;SDS011;27057;51.438;-0.010;2023-01-19T02:26:19;7.15;;;3.72;;
41309;SDS011;27057;51.438;-0.010;2023-01-19T02:29:00;9.00;;;3.17;;
41309;SDS011;27057;51.438;-0.010;2023-01-19T02:31:30;13.63;;;4.32;;
41309;SDS011;27057;51.438;-0.010;2023-01-19T02:33:59;25.08;;;5.03;;
41309;SDS011;27057;51.438;-0.010;2023-01-19T02:36:34;17.08;;;4.88;;
41309;SDS011;27057;51.438;-0.010;2023-01-19T02:39:12;18.05;;;4.45;;
41309;SDS011;27057;51.438;-0.010;2023-01-19T02:41:42;12.80;;;4.63;;
41309;SDS011;27057;51.438;-0.010;2023-01-19T02:44:17;6.78;;;2.42;;
41309;SDS011;27057;51.438;-0.010;2023-01-19T02:46:45;8.45;;;3.25;;
41309;SDS011;27057;51.438;-0.010;2023-01-19T02:49:13;6.30;;;2.92;;
41309;SDS011;27057;51.438;-0.010;2023-01-19T02:51:41;18.27;;;3.72;;
41309;SDS011;27057;51.438;-0.010;2023-01-19T03:06:10;13.85;;;3.67;;
41309;SDS011;27057;51.438;-0.010;2023-01-19T03:11:06;13.73;;;3.45;;
41309;SDS011;27057;51.438;-0.010;2023-01-19T03:13:52;13.35;;;3.75;;
41309;SDS011;27057;51.438;-0.010;2023-01-19T03:16:46;9.85;;;4.10;;
41309;SDS011;27057;51.438;-0.010;2023-01-19T03:19:34;7.95;;;3.20;;
41309;SDS011;27057;51.438;-0.010;2023-01-19T03:22:06;18.08;;;4.47;;
41309;SDS011;27057;51.438;-0.010;2023-01-19T03:24:42;16.48;;;4.10;;
41309;SDS011;27057;51.438;-0.010;2023-01-19T03:27:24;14.90;;;3.90;;
41309;SDS011;27057;51.438;-0.010;2023-01-19T03:29:59;11.13;;;3.83;;
41309;SDS011;27057;51.438;-0.010;2023-01-19T03:32:33;7.88;;;3.53;;
41309;SDS011;27057;51.438;-0.010;2023-01-19T03:35:05;15.88;;;5.10;;
41309;SDS011;27057;51.438;-0.010;2023-01-19T03:37:38;10.95;;;3.58;;
41309;SDS011;27057;51.438;-0.010;2023-01-19T03:40:07;23.50;;;3.78;;
41309;SDS011;27057;51.438;-0.010;2023-01-19T03:42:36;20.15;;;4.43;;
41309;SDS011;27057;51.438;-0.010;2023-01-19T03:45:05;14.40;;;4.40;;
41309;SDS011;27057;51.438;-0.010;2023-01-19T03:47:34;9.77;;;3.95;;
41309;SDS011;27057;51.438;-0.010;2023-01-19T03:50:03;10.48;;;3.38;;
41309;SDS011;27057;51.438;-0.010;2023-01-19T03:52:35;20.45;;;3.70;;
41309;SDS011;27057;51.438;-0.010;2023-01-19T03:55:03;18.55;;;4.68;;
41309;SDS011;27057;51.438;-0.010;2023-01-19T03:57:31;4.60;;;3.20;;
41309;SDS011;27057;51.438;-0.010;2023-01-19T03:59:59;13.70;;;3.65;;
41309;SDS011;27057;51.438;-0.010;2023-01-19T04:02:26;8.88;;;3.17;;
41309;SDS011;27057;51.438;-0.010;2023-01-19T04:04:54;11.27;;;4.60;;
41309;SDS011;27057;51.438;-0.010;2023-01-19T04:07:21;8.25;;;3.88;;
41309;SDS011;27057;51.438;-0.010;2023-01-19T04:09:48;8.98;;;3.88;;
41309;SDS011;27057;51.438;-0.010;2023-01-19T04:12:16;11.65;;;4.03;;
41309;SDS011;27057;51.438;-0.010;2023-01-19T04:14:43;8.27;;;3.47;;
41309;SDS011;27057;51.438;-0.010;2023-01-19T04:17:10;10.45;;;3.85;;
41309;SDS011;27057;51.438;-0.010;2023-01-19T04:19:38;9.77;;;3.40;;
41309;SDS011;27057;51.438;-0.010;2023-01-19T04:22:05;22.52;;;3.78;;
41309;SDS011;27057;51.438;-0.010;2023-01-19T04:24:32;13.43;;;4.07;;
41309;SDS011;27057;51.438;-0.010;2023-01-19T04:27:00;18.45;;;3.15;;
41309;SDS011;27057;51.438;-0.010;2023-01-19T04:29:27;8.65;;;4.18;;
41309;SDS011;27057;51.438;-0.010;2023-01-19T04:31:54;20.15;;;4.53;;
41309;SDS011;27057;51.438;-0.010;2023-01-19T04:34:23;6.95;;;3.85;;
41309;SDS011;27057;51.438;-0.010;2023-01-19T04:36:50;10.50;;;3.78;;
41309;SDS011;27057;51.438;-0.010;2023-01-19T04:39:17;8.23;;;2.78;;
41309;SDS011;27057;51.438;-0.010;2023-01-19T04:41:45;5.50;;;3.00;;
41309;SDS011;27057;51.438;-0.010;2023-01-19T04:44:13;9.60;;;3.45;;
41309;SDS011;27057;51.438;-0.010;2023-01-19T04:46:40;18.75;;;3.25;;
41309;SDS011;27057;51.438;-0.010;2023-01-19T04:49:08;2.05;;;1.83;;
41309;SDS011;27057;51.438;-0.010;2023-01-19T04:51:36;12.75;;;3.25;;
41309;SDS011;27057;51.438;-0.010;2023-01-19T04:54:04;16.73;;;4.68;;
41309;SDS011;27057;51.438;-0.010;2023-01-19T04:56:32;6.22;;;2.63;;
41309;SDS011;27057;51.438;-0.010;2023-01-19T04:59:00;10.65;;;3.67;;
41309;SDS011;27057;51.438;-0.010;2023-01-19T05:01:28;18.63;;;4.25;;
41309;SDS011;27057;51.438;-0.010;2023-01-19T05:03:57;8.18;;;3.85;;
41309;SDS011;27057;51.438;-0.010;2023-01-19T05:06:25;10.02;;;3.92;;
41309;SDS011;27057;51.438;-0.010;2023-01-19T05:08:52;9.32;;;3.53;;
41309;SDS011;27057;51.438;-0.010;2023-01-19T05:11:20;11.02;;;3.72;;
41309;SDS011;27057;51.438;-0.010;2023-01-19T05:13:47;7.32;;;3.70;;
41309;SDS011;27057;51.438;-0.010;2023-01-19T05:16:16;16.30;;;4.53;;
41309;SDS011;27057;51.438;-0.010;2023-01-19T05:18:44;16.17;;;5.72;;
41309;SDS011;27057;51.438;-0.010;2023-01-19T05:21:11;20.00;;;4.07;;
41309;SDS011;27057;51.438;-0.010;2023-01-19T05:23:38;6.07;;;2.92;;
41309;SDS011;27057;51.438;-0.010;2023-01-19T05:26:06;19.33;;;4.47;;
41309;SDS011;27057;51.438;-0.010;2023-01-19T05:28:36;10.23;;;4.07;;
41309;SDS011;27057;51.438;-0.010;2023-01-19T05:31:03;12.32;;;3.22;;
41309;SDS011;27057;51.438;-0.010;2023-01-19T05:33:31;9.90;;;4.13;;
41309;SDS011;27057;51.438;-0.010;2023-01-19T05:35:58;6.40;;;2.78;;
41309;SDS011;27057;51.438;-0.010;2023-01-19T05:38:26;10.75;;;4.60;;
41309;SDS011;27057;51.438;-0.010;2023-01-19T05:41:01;15.32;;;4.05;;
41309;SDS011;27057;51.438;-0.010;2023-01-19T05:43:29;19.25;;;5.65;;
41309;SDS011;27057;51.438;-0.010;2023-01-19T05:45:56;9.25;;;4.30;;
41309;SDS011;27057;51.438;-0.010;2023-01-19T05:48:23;8.27;;;3.67;;
41309;SDS011;27057;51.438;-0.010;2023-01-19T05:50:55;12.27;;;3.88;;
41309;SDS011;27057;51.438;-0.010;2023-01-19T05:53:23;12.57;;;4.55;;
41309;SDS011;27057;51.438;-0.010;2023-01-19T05:55:51;22.08;;;5.13;;
41309;SDS011;27057;51.438;-0.010;2023-01-19T05:58:19;13.55;;;4.72;;
41309;SDS011;27057;51.438;-0.010;2023-01-19T06:00:46;16.58;;;4.70;;
41309;SDS011;27057;51.438;-0.010;2023-01-19T06:03:14;15.25;;;5.15;;
41309;SDS011;27057;51.438;-0.010;2023-01-19T06:05:41;11.35;;;4.40;;
41309;SDS011;27057;51.438;-0.010;2023-01-19T06:08:08;10.93;;;4.20;;
41309;SDS011;27057;51.438;-0.010;2023-01-19T06:10:36;13.25;;;4.95;;
41309;SDS011;27057;51.438;-0.010;2023-01-19T06:13:04;14.65;;;4.70;;
41309;SDS011;27057;51.438;-0.010;2023-01-19T06:15:31;7.68;;;4.15;;
41309;SDS011;27057;51.438;-0.010;2023-01-19T06:17:59;16.00;;;4.60;;
41309;SDS011;27057;51.438;-0.010;2023-01-19T06:20:26;9.70;;;4.32;;
41309;SDS011;27057;51.438;-0.010;2023-01-19T06:22:57;11.27;;;4.13;;
41309;SDS011;27057;51.438;-0.010;2023-01-19T06:25:25;20.17;;;5.40;;
41309;SDS011;27057;51.438;-0.010;2023-01-19T06:27:52;12.75;;;4.63;;
41309;SDS011;27057;51.438;-0.010;2023-01-19T06:30:20;9.43;;;4.18;;
41309;SDS011;27057;51.438;-0.010;2023-01-19T06:32:51;19.05;;;4.03;;
41309;SDS011;27057;51.438;-0.010;2023-01-19T06:35:19;15.30;;;4.97;;
41309;SDS011;27057;51.438;-0.010;2023-01-19T06:37:46;17.85;;;5.57;;
41309;SDS011;27057;51.438;-0.010;2023-01-19T06:40:14;20.42;;;5.38;;
41309;SDS011;27057;51.438;-0.010;2023-01-19T06:42:41;9.93;;;5.07;;
41309;SDS011;27057;51.438;-0.010;2023-01-19T06:45:08;17.27;;;6.00;;
41309;SDS011;27057;51.438;-0.010;2023-01-19T06:47:36;19.73;;;5.03;;
41309;SDS011;27057;51.438;-0.010;2023-01-19T06:50:03;13.05;;;5.75;;
41309;SDS011;27057;51.438;-0.010;2023-01-19T06:52:31;14.02;;;5.10;;
41309;SDS011;27057;51.438;-0.010;2023-01-19T06:54:59;14.60;;;5.35;;
41309;SDS011;27057;51.438;-0.010;2023-01-19T06:57:26;20.30;;;4.90;;
41309;SDS011;27057;51.438;-0.010;2023-01-19T06:59:54;14.23;;;4.90;;
41309;SDS011;27057;51.438;-0.010;2023-01-19T07:02:21;27.40;;;6.20;;
41309;SDS011;27057;51.438;-0.010;2023-01-19T07:04:54;11.18;;;4.43;;
41309;SDS011;27057;51.438;-0.010;2023-01-19T07:07:22;16.15;;;4.82;;
41309;SDS011;27057;51.438;-0.010;2023-01-19T07:09:49;19.35;;;4.07;;
41309;SDS011;27057;51.438;-0.010;2023-01-19T07:12:20;15.63;;;5.07;;
41309;SDS011;27057;51.438;-0.010;2023-01-19T07:14:48;15.75;;;5.82;;
41309;SDS011;27057;51.438;-0.010;2023-01-19T07:17:16;15.20;;;5.68;;
41309;SDS011;27057;51.438;-0.010;2023-01-19T07:19:44;13.45;;;5.75;;
41309;SDS011;27057;51.438;-0.010;2023-01-19T07:22:12;23.10;;;4.93;;
41309;SDS011;27057;51.438;-0.010;2023-01-19T07:24:39;13.43;;;3.90;;
41309;SDS011;27057;51.438;-0.010;2023-01-19T07:27:07;18.63;;;5.95;;
41309;SDS011;27057;51.438;-0.010;2023-01-19T07:29:34;8.05;;;4.60;;
41309;SDS011;27057;51.438;-0.010;2023-01-19T07:32:02;19.27;;;5.68;;
41309;SDS011;27057;51.438;-0.010;2023-01-19T07:34:29;27.27;;;6.85;;
41309;SDS011;27057;51.438;-0.010;2023-01-19T07:36:57;18.20;;;6.18;;
41309;SDS011;27057;51.438;-0.010;2023-01-19T07:39:24;12.85;;;5.80;;
41309;SDS011;27057;51.438;-0.010;2023-01-19T07:41:51;13.52;;;5.40;;
41309;SDS011;27057;51.438;-0.010;2023-01-19T07:44:21;20.42;;;6.13;;
41309;SDS011;27057;51.438;-0.010;2023-01-19T07:46:49;17.75;;;6.07;;
41309;SDS011;27057;51.438;-0.010;2023-01-19T07:49:16;13.35;;;5.40;;
41309;SDS011;27057;51.438;-0.010;2023-01-19T07:51:44;16.45;;;5.63;;
41309;SDS011;27057;51.438;-0.010;2023-01-19T07:54:12;20.75;;;4.55;;
41309;SDS011;27057;51.438;-0.010;2023-01-19T07:56:39;14.80;;;5.18;;
41309;SDS011;27057;51.438;-0.010;2023-01-19T07:59:07;21.42;;;5.93;;
41309;SDS011;27057;51.438;-0.010;2023-01-19T08:01:35;13.82;;;5.75;;
41309;SDS011;27057;51.438;-0.010;2023-01-19T08:04:03;12.27;;;5.45;;
41309;SDS011;27057;51.438;-0.010;2023-01-19T08:06:32;11.93;;;5.53;;
41309;SDS011;27057;51.438;-0.010;2023-01-19T08:09:01;26.73;;;7.32;;
41309;SDS011;27057;51.438;-0.010;2023-01-19T08:11:31;15.05;;;5.15;;
41309;SDS011;27057;51.438;-0.010;2023-01-19T08:13:59;13.75;;;6.40;;
41309;SDS011;27057;51.438;-0.010;2023-01-19T08:16:26;17.23;;;6.10;;
41309;SDS011;27057;51.438;-0.010;2023-01-19T08:18:54;26.40;;;7.43;;
41309;SDS011;27057;51.438;-0.010;2023-01-19T08:21:22;19.23;;;6.13;;
41309;SDS011;27057;51.438;-0.010;2023-01-19T08:23:51;19.00;;;5.43;;
41309;SDS011;27057;51.438;-0.010;2023-01-19T08:26:26;16.42;;;6.07;;
41309;SDS011;27057;51.438;-0.010;2023-01-19T08:28:56;14.38;;;5.90;;
41309;SDS011;27057;51.438;-0.010;2023-01-19T08:31:25;29.65;;;7.53;;
41309;SDS011;27057;51.438;-0.010;2023-01-19T08:33:53;14.45;;;5.85;;
41309;SDS011;27057;51.438;-0.010;2023-01-19T08:36:21;13.98;;;5.65;;
41309;SDS011;27057;51.438;-0.010;2023-01-19T08:38:50;10.57;;;5.05;;
41309;SDS011;27057;51.438;-0.010;2023-01-19T08:41:18;14.50;;;4.82;;
41309;SDS011;27057;51.438;-0.010;2023-01-19T08:43:46;21.85;;;3.80;;
41309;SDS011;27057;51.438;-0.010;2023-01-19T08:46:14;13.77;;;5.15;;
41309;SDS011;27057;51.438;-0.010;2023-01-19T08:48:43;15.50;;;6.07;;
41309;SDS011;27057;51.438;-0.010;2023-01-19T08:51:16;13.38;;;5.38;;
41309;SDS011;27057;51.438;-0.010;2023-01-19T08:53:44;21.65;;;6.32;;
41309;SDS011;27057;51.438;-0.010;2023-01-19T08:56:12;15.63;;;6.72;;
41309;SDS011;27057;51.438;-0.010;2023-01-19T08:58:40;16.20;;;6.43;;
41309;SDS011;27057;51.438;-0.010;2023-01-19T09:01:10;14.80;;;6.13;;
41309;SDS011;27057;51.438;-0.010;2023-01-19T09:03:43;12.07;;;6.05;;
41309;SDS011;27057;51.438;-0.010;2023-01-19T09:06:11;13.27;;;6.15;;
41309;SDS011;27057;51.438;-0.010;2023-01-19T09:08:40;24.95;;;5.63;;
41309;SDS011;27057;51.438;-0.010;2023-01-19T09:11:08;14.55;;;5.85;;
41309;SDS011;27057;51.438;-0.010;2023-01-19T09:13:37;14.95;;;5.28;;
41309;SDS011;27057;51.438;-0.010;2023-01-19T09:16:05;15.48;;;5.38;;
41309;SDS011;27057;51.438;-0.010;2023-01-19T09:18:35;22.45;;;5.88;;
41309;SDS011;27057;51.438;-0.010;2023-01-19T09:21:03;12.98;;;5.15;;
41309;SDS011;27057;51.438;-0.010;2023-01-19T09:23:31;13.60;;;5.03;;
41309;SDS011;27057;51.438;-0.010;2023-01-19T09:25:59;14.15;;;5.10;;
41309;SDS011;27057;51.438;-0.010;2023-01-19T09:28:29;9.38;;;5.90;;
41309;SDS011;27057;51.438;-0.010;2023-01-19T09:30:56;20.10;;;6.05;;
41309;SDS011;27057;51.438;-0.010;2023-01-19T09:33:24;13.30;;;6.25;;
41309;SDS011;27057;51.438;-0.010;2023-01-19T09:35:51;13.52;;;6.05;;
41309;SDS011;27057;51.438;-0.010;2023-01-19T09:38:19;15.77;;;5.78;;
41309;SDS011;27057;51.438;-0.010;2023-01-19T09:40:49;18.55;;;6.03;;
41309;SDS011;27057;51.438;-0.010;2023-01-19T09:43:23;20.70;;;5.63;;
41309;SDS011;27057;51.438;-0.010;2023-01-19T09:45:58;25.13;;;5.20;;
41309;SDS011;27057;51.438;-0.010;2023-01-19T09:48:38;21.42;;;6.35;;
41309;SDS011;27057;51.438;-0.010;2023-01-19T09:51:19;18.90;;;7.10;;
41309;SDS011;27057;51.438;-0.010;2023-01-19T09:56:24;20.20;;;6.07;;
41309;SDS011;27057;51.438;-0.010;2023-01-19T09:58:53;19.45;;;5.60;;
41309;SDS011;27057;51.438;-0.010;2023-01-19T10:04:07;18.33;;;5.78;;
41309;SDS011;27057;51.438;-0.010;2023-01-19T10:06:54;16.83;;;6.50;;
41309;SDS011;27057;51.438;-0.010;2023-01-19T10:10:29;20.33;;;10.02;;
41309;SDS011;27057;51.438;-0.010;2023-01-19T10:18:51;12.65;;;6.20;;
41309;SDS011;27057;51.438;-0.010;2023-01-19T10:21:33;22.00;;;5.30;;
41309;SDS011;27057;51.438;-0.010;2023-01-19T10:24:12;11.50;;;4.95;;
41309;SDS011;27057;51.438;-0.010;2023-01-19T10:26:57;8.98;;;4.15;;
41309;SDS011;27057;51.438;-0.010;2023-01-19T10:29:27;18.23;;;4.45;;
41309;SDS011;27057;51.438;-0.010;2023-01-19T10:34:32;16.52;;;3.97;;
41309;SDS011;27057;51.438;-0.010;2023-01-19T10:42:37;8.63;;;3.95;;
41309;SDS011;27057;51.438;-0.010;2023-01-19T10:45:19;12.95;;;3.67;;
41309;SDS011;27057;51.438;-0.010;2023-01-19T10:47:50;10.52;;;4.07;;
41309;SDS011;27057;51.438;-0.010;2023-01-19T10:50:24;12.88;;;3.88;;
41309;SDS011;27057;51.438;-0.010;2023-01-19T10:52:53;14.80;;;3.42;;
41309;SDS011;27057;51.438;-0.010;2023-01-19T10:55:25;13.98;;;3.88;;
41309;SDS011;27057;51.438;-0.010;2023-01-19T10:58:04;13.10;;;5.10;;
41309;SDS011;27057;51.438;-0.010;2023-01-19T11:00:51;13.10;;;4.00;;
41309;SDS011;27057;51.438;-0.010;2023-01-19T11:03:22;23.20;;;4.90;;
41309;SDS011;27057;51.438;-0.010;2023-01-19T11:05:51;7.68;;;3.67;;
41309;SDS011;27057;51.438;-0.010;2023-01-19T11:08:23;14.23;;;4.40;;
41309;SDS011;27057;51.438;-0.010;2023-01-19T11:11:00;18.42;;;4.97;;
41309;SDS011;27057;51.438;-0.010;2023-01-19T11:13:38;10.73;;;3.90;;
41309;SDS011;27057;51.438;-0.010;2023-01-19T11:16:13;15.75;;;3.72;;
41309;SDS011;27057;51.438;-0.010;2023-01-19T11:18:50;14.98;;;3.67;;
41309;SDS011;27057;51.438;-0.010;2023-01-19T11:21:21;15.45;;;3.67;;
41309;SDS011;27057;51.438;-0.010;2023-01-19T11:24:12;7.43;;;3.70;;
41309;SDS011;27057;51.438;-0.010;2023-01-19T11:26:48;11.63;;;4.18;;
41309;SDS011;27057;51.438;-0.010;2023-01-19T11:29:24;6.25;;;2.67;;
41309;SDS011;27057;51.438;-0.010;2023-01-19T11:31:53;12.27;;;4.05;;
41309;SDS011;27057;51.438;-0.010;2023-01-19T11:34:25;13.05;;;3.92;;
41309;SDS011;27057;51.438;-0.010;2023-01-19T11:37:04;8.23;;;3.17;;
41309;SDS011;27057;51.438;-0.010;2023-01-19T11:39:56;11.48;;;3.53;;
41309;SDS011;27057;51.438;-0.010;2023-01-19T11:42:27;15.18;;;3.65;;
41309;SDS011;27057;51.438;-0.010;2023-01-19T11:47:26;9.23;;;3.72;;
41309;SDS011;27057;51.438;-0.010;2023-01-19T11:50:14;13.25;;;3.28;;
41309;SDS011;27057;51.438;-0.010;2023-01-19T11:52:56;10.73;;;3.78;;
41309;SDS011;27057;51.438;-0.010;2023-01-19T11:55:39;14.40;;;4.03;;
41309;SDS011;27057;51.438;-0.010;2023-01-19T11:58:19;12.93;;;5.07;;
41309;SDS011;27057;51.438;-0.010;2023-01-19T12:06:06;27.00;;;3.97;;
41309;SDS011;27057;51.438;-0.010;2023-01-19T12:08:45;16.27;;;4.57;;
41309;SDS011;27057;51.438;-0.010;2023-01-19T12:11:17;13.60;;;4.05;;
41309;SDS011;27057;51.438;-0.010;2023-01-19T12:13:49;15.43;;;5.95;;
41309;SDS011;27057;51.438;-0.010;2023-01-19T12:16:20;8.40;;;4.30;;
41309;SDS011;27057;51.438;-0.010;2023-01-19T12:18:54;13.85;;;4.90;;
41309;SDS011;27057;51.438;-0.010;2023-01-19T12:21:26;13.88;;;5.18;;
41309;SDS011;27057;51.438;-0.010;2023-01-19T12:26:28;14.65;;;5.78;;
41309;SDS011;27057;51.438;-0.010;2023-01-19T12:29:11;14.27;;;4.90;;
41309;SDS011;27057;51.438;-0.010;2023-01-19T12:31:41;10.98;;;4.93;;
41309;SDS011;27057;51.438;-0.010;2023-01-19T12:36:52;18.73;;;5.45;;
41309;SDS011;27057;51.438;-0.010;2023-01-19T12:39:29;32.70;;;5.80;;
41309;SDS011;27057;51.438;-0.010;2023-01-19T12:42:05;22.13;;;6.50;;
41309;SDS011;27057;51.438;-0.010;2023-01-19T12:44:38;28.98;;;6.55;;
41309;SDS011;27057;51.438;-0.010;2023-01-19T12:49:44;16.05;;;5.47;;
41309;SDS011;27057;51.438;-0.010;2023-01-19T13:00:06;9.90;;;3.78;;
41309;SDS011;27057;51.438;-0.010;2023-01-19T13:02:42;16.17;;;4.28;;
41309;SDS011;27057;51.438;-0.010;2023-01-19T13:13:32;13.88;;;3.72;;
41309;SDS011;27057;51.438;-0.010;2023-01-19T13:21:34;13.80;;;5.90;;
41309;SDS011;27057;51.438;-0.010;2023-01-19T13:24:12;18.38;;;4.88;;
41309;SDS011;27057;51.438;-0.010;2023-01-19T13:29:30;12.57;;;4.35;;
41309;SDS011;27057;51.438;-0.010;2023-01-19T13:32:01;10.20;;;3.78;;
41309;SDS011;27057;51.438;-0.010;2023-01-19T13:34:45;20.75;;;4.30;;
41309;SDS011;27057;51.438;-0.010;2023-01-19T13:37:25;18.95;;;5.60;;
41309;SDS011;27057;51.438;-0.010;2023-01-19T13:40:19;10.30;;;3.97;;
41309;SDS011;27057;51.438;-0.010;2023-01-19T13:42:50;10.52;;;4.00;;
41309;SDS011;27057;51.438;-0.010;2023-01-19T13:48:06;17.85;;;4.88;;
41309;SDS011;27057;51.438;-0.010;2023-01-19T13:50:38;15.10;;;4.28;;
41309;SDS011;27057;51.438;-0.010;2023-01-19T13:53:18;19.33;;;4.00;;
41309;SDS011;27057;51.438;-0.010;2023-01-19T13:55:46;15.20;;;4.80;;
41309;SDS011;27057;51.438;-0.010;2023-01-19T13:58:20;12.60;;;4.65;;
41309;SDS011;27057;51.438;-0.010;2023-01-19T14:00:49;11.98;;;4.13;;
41309;SDS011;27057;51.438;-0.010;2023-01-19T14:03:17;15.55;;;4.38;;
41309;SDS011;27057;51.438;-0.010;2023-01-19T14:05:52;12.10;;;4.20;;
41309;SDS011;27057;51.438;-0.010;2023-01-19T14:08:21;16.33;;;4.38;;
41309;SDS011;27057;51.438;-0.010;2023-01-19T14:13:28;15.25;;;4.93;;
41309;SDS011;27057;51.438;-0.010;2023-01-19T14:16:04;13.23;;;4.88;;
41309;SDS011;27057;51.438;-0.010;2023-01-19T14:18:33;15.63;;;5.20;;
41309;SDS011;27057;51.438;-0.010;2023-01-19T14:23:47;15.18;;;4.90;;
41309;SDS011;27057;51.438;-0.010;2023-01-19T14:29:24;13.23;;;3.88;;
41309;SDS011;27057;51.438;-0.010;2023-01-19T14:32:43;11.38;;;4.63;;
41309;SDS011;27057;51.438;-0.010;2023-01-19T14:35:27;11.75;;;5.05;;
41309;SDS011;27057;51.438;-0.010;2023-01-19T14:37:57;13.85;;;5.10;;
41309;SDS011;27057;51.438;-0.010;2023-01-19T14:41:26;11.88;;;4.10;;
41309;SDS011;27057;51.438;-0.010;2023-01-19T14:44:37;19.85;;;3.30;;
41309;SDS011;27057;51.438;-0.010;2023-01-19T14:47:32;13.73;;;3.42;;
41309;SDS011;27057;51.438;-0.010;2023-01-19T14:50:21;18.20;;;3.35;;
41309;SDS011;27057;51.438;-0.010;2023-01-19T14:52:53;8.32;;;3.15;;
41309;SDS011;27057;51.438;-0.010;2023-01-19T14:55:31;10.63;;;4.18;;
41309;SDS011;27057;51.438;-0.010;2023-01-19T14:58:13;17.80;;;3.80;;
41309;SDS011;27057;51.438;-0.010;2023-01-19T15:00:42;9.02;;;3.67;;
41309;SDS011;27057;51.438;-0.010;2023-01-19T15:03:45;23.60;;;4.13;;
41309;SDS011;27057;51.438;-0.010;2023-01-19T15:06:17;32.20;;;4.15;;
41309;SDS011;27057;51.438;-0.010;2023-01-19T15:08:58;22.35;;;3.40;;
41309;SDS011;27057;51.438;-0.010;2023-01-19T15:11:29;21.08;;;4.18;;
41309;SDS011;27057;51.438;-0.010;2023-01-19T15:14:00;18.63;;;3.50;;
41309;SDS011;27057;51.438;-0.010;2023-01-19T15:16:29;22.60;;;4.43;;
41309;SDS011;27057;51.438;-0.010;2023-01-19T15:18:59;20.13;;;3.55;;
41309;SDS011;27057;51.438;-0.010;2023-01-19T15:21:27;17.50;;;3.97;;
41309;SDS011;27057;51.438;-0.010;2023-01-19T15:23:55;16.13;;;3.65;;
41309;SDS011;27057;51.438;-0.010;2023-01-19T15:26:24;7.28;;;2.63;;
41309;SDS011;27057;51.438;-0.010;2023-01-19T15:28:54;8.85;;;2.83;;
41309;SDS011;27057;51.438;-0.010;2023-01-19T15:31:23;18.23;;;2.83;;
41309;SDS011;27057;51.438;-0.010;2023-01-19T15:33:52;9.05;;;3.08;;
41309;SDS011;27057;51.438;-0.010;2023-01-19T15:36:20;7.28;;;2.80;;
41309;SDS011;27057;51.438;-0.010;2023-01-19T15:38:50;6.95;;;2.85;;
41309;SDS011;27057;51.438;-0.010;2023-01-19T15:41:20;14.88;;;3.55;;
41309;SDS011;27057;51.438;-0.010;2023-01-19T15:43:49;9.65;;;2.80;;
41309;SDS011;27057;51.438;-0.010;2023-01-19T15:46:18;4.10;;;2.03;;
41309;SDS011;27057;51.438;-0.010;2023-01-19T15:48:47;13.85;;;3.30;;
41309;SDS011;27057;51.438;-0.010;2023-01-19T15:51:17;14.07;;;2.50;;
41309;SDS011;27057;51.438;-0.010;2023-01-19T15:53:46;10.25;;;2.72;;
41309;SDS011;27057;51.438;-0.010;2023-01-19T15:56:15;12.15;;;3.72;;
41309;SDS011;27057;51.438;-0.010;2023-01-19T15:58:45;10.25;;;2.45;;
41309;SDS011;27057;51.438;-0.010;2023-01-19T16:01:13;13.05;;;2.65;;
41309;SDS011;27057;51.438;-0.010;2023-01-19T16:03:43;5.75;;;2.50;;
41309;SDS011;27057;51.438;-0.010;2023-01-19T16:06:11;20.95;;;3.67;;
41309;SDS011;27057;51.438;-0.010;2023-01-19T16:08:38;15.35;;;3.55;;
41309;SDS011;27057;51.438;-0.010;2023-01-19T16:11:07;10.15;;;3.88;;
41309;SDS011;27057;51.438;-0.010;2023-01-19T16:13:36;8.48;;;3.42;;
41309;SDS011;27057;51.438;-0.010;2023-01-19T16:16:05;6.05;;;2.67;;
41309;SDS011;27057;51.438;-0.010;2023-01-19T16:18:34;7.53;;;2.67;;
41309;SDS011;27057;51.438;-0.010;2023-01-19T16:21:02;8.00;;;3.33;;
41309;SDS011;27057;51.438;-0.010;2023-01-19T16:23:29;13.98;;;3.28;;